Time;durP1;ratioP1;P1;durP2;ratioP2;P2;SDS_P1;SDS_P2;PMS_P1;PMS_P2;Temp;Humidity;BMP_temperature;BMP_pressure;BME280_temperature;BME280_humidity;BME280_pressure;Samples;Min_cycle;Max_cycle;Signal;HPM_P1;HPM_P2
2022/04/09 00:00:57;;;;;;;;;3.25;3.25;;;;;5.79;69.68;100417.59;5035831;28;45350;-48
2022/04/09 00:03:22;;;;;;;;;6.00;5.50;;;;;5.75;69.71;100440.78;5037052;28;45448;-52
2022/04/09 00:05:47;;;;;;;;;9.00;5.00;;;;;5.68;70.46;100415.34;5036718;28;45482;-54
2022/04/09 00:08:14;;;;;;;;;4.75;3.50;;;;;5.82;69.62;100447.16;5037005;28;45351;-49
2022/04/09 00:10:39;;;;;;;;;5.40;5.40;;;;;5.57;70.62;100430.28;5036596;28;45513;-49
2022/04/09 00:13:05;;;;;;;;;5.00;5.00;;;;;5.46;70.71;100428.00;5019196;28;45385;-50
2022/04/09 00:15:30;;;;;;;;;10.50;8.00;;;;;5.67;70.69;100446.34;5034895;28;45358;-46
2022/04/09 00:17:56;;;;;;;;;1.00;1.00;;;;;5.76;70.35;100466.97;5035382;28;45504;-47
2022/04/09 00:20:21;;;;;;;;;6.75;4.75;;;;;5.74;69.19;100462.75;5036524;28;45413;-50
2022/04/09 00:22:47;;;;;;;;;8.75;5.50;;;;;5.62;70.51;100443.31;5036900;28;45421;-48
2022/04/09 00:25:14;;;;;;;;;8.00;6.00;;;;;5.77;70.68;100459.66;5035298;28;46409;-49
2022/04/09 00:27:40;;;;;;;;;5.80;5.00;;;;;5.83;69.93;100465.19;5034852;28;45338;-51
2022/04/09 00:30:07;;;;;;;;;6.00;4.00;;;;;5.89;69.71;100479.09;5036667;28;45381;-49
2022/04/09 00:32:33;;;;;;;;;5.20;5.20;;;;;5.87;70.01;100478.47;5069221;28;45372;-48
2022/04/09 00:34:59;;;;;;;;;5.25;5.25;;;;;5.75;70.16;100468.03;5051503;28;47408;-47
2022/04/09 00:37:24;;;;;;;;;8.75;7.00;;;;;5.80;70.95;100471.03;5068887;28;45703;-48
2022/04/09 00:39:50;;;;;;;;;4.25;3.50;;;;;5.84;70.26;100471.50;5034868;28;45441;-48
2022/04/09 00:42:16;;;;;;;;;4.25;4.25;;;;;5.88;70.87;100466.53;5035197;28;45443;-48
2022/04/09 00:44:42;;;;;;;;;5.40;5.20;;;;;5.83;70.21;100453.47;5018310;28;46370;-48
2022/04/09 00:47:07;;;;;;;;;5.50;5.50;;;;;5.91;70.02;100457.97;5034661;28;45347;-48
2022/04/09 00:49:33;;;;;;;;;6.25;6.25;;;;;5.92;69.66;100468.69;5036256;28;45362;-49
2022/04/09 00:51:59;;;;;;;;;6.00;3.50;;;;;5.76;69.65;100433.47;5035012;28;45480;-52
2022/04/09 00:54:25;;;;;;;;;5.20;5.20;;;;;6.03;70.43;100480.19;5050956;28;46077;-48
2022/04/09 00:56:51;;;;;;;;;3.25;3.25;;;;;6.04;70.21;100481.88;5001550;28;45555;-52
2022/04/09 00:59:17;;;;;;;;;4.20;3.80;;;;;6.08;69.88;100477.72;5034343;28;45403;-52
2022/04/09 01:01:42;;;;;;;;;3.25;3.25;;;;;6.04;68.44;100473.69;5018955;28;45335;-46
2022/04/09 01:04:10;;;;;;;;;6.00;6.00;;;;;6.04;68.51;100481.88;5035482;28;46013;-47
2022/04/09 01:06:36;;;;;;;;;6.80;5.00;;;;;6.02;68.60;100484.78;5035749;28;45477;-48
2022/04/09 01:09:02;;;;;;;;;5.75;4.50;;;;;6.03;68.85;100483.75;5018138;28;45322;-48
2022/04/09 01:11:28;;;;;;;;;6.60;5.60;;;;;6.14;68.63;100484.31;5068331;28;45440;-48
2022/04/09 01:13:53;;;;;;;;;10.00;5.25;;;;;6.18;68.00;100486.47;5035652;28;46569;-48
2022/04/09 01:16:19;;;;;;;;;5.00;4.50;;;;;6.23;67.70;100497.66;5027503;28;45454;-50
2022/04/09 01:18:44;;;;;;;;;1.00;1.00;;;;;6.18;67.50;100489.19;5033800;28;45400;-48
2022/04/09 01:21:10;;;;;;;;;3.00;3.00;;;;;6.28;67.43;100499.81;5026265;28;45605;-49
2022/04/09 01:23:36;;;;;;;;;1.75;1.75;;;;;6.34;67.35;100498.19;5032768;28;46589;-47
2022/04/09 01:26:02;;;;;;;;;1.50;1.50;;;;;6.37;67.02;100506.81;5031809;28;45476;-48
2022/04/09 01:28:28;;;;;;;;;2.00;2.00;;;;;6.42;67.13;100500.84;5035412;28;45377;-53
2022/04/09 01:30:54;;;;;;;;;2.80;1.80;;;;;6.44;67.24;100523.28;5035870;28;45231;-50
2022/04/09 01:33:20;;;;;;;;;2.00;2.00;;;;;6.46;66.74;100531.28;5035509;28;46401;-52
2022/04/09 01:35:46;;;;;;;;;1.00;1.00;;;;;6.42;67.14;100535.41;5035357;28;45306;-49
2022/04/09 01:38:12;;;;;;;;;1.20;1.20;;;;;6.40;67.47;100542.94;5050930;28;45255;-51
2022/04/09 01:40:38;;;;;;;;;1.40;1.40;;;;;6.40;67.13;100542.94;5050806;28;45457;-49
2022/04/09 01:43:04;;;;;;;;;2.00;2.00;;;;;6.37;67.69;100547.72;5035406;28;45405;-52
2022/04/09 01:45:29;;;;;;;;;2.75;1.75;;;;;6.39;67.12;100563.06;5035281;28;45421;-50
2022/04/09 01:47:55;;;;;;;;;3.00;2.00;;;;;6.39;68.01;100544.00;5035453;28;45299;-49
2022/04/09 01:50:26;;;;;;;;;4.50;3.25;;;;;6.30;67.65;100545.97;5034290;28;45662;-48
2022/04/09 01:52:51;;;;;;;;;1.60;1.60;;;;;6.19;67.96;100541.84;5034785;28;45593;-50
2022/04/09 01:55:17;;;;;;;;;1.00;1.00;;;;;6.20;67.70;100551.69;5067565;28;45460;-48
2022/04/09 01:57:42;;;;;;;;;2.00;1.00;;;;;6.21;68.54;100551.50;5035602;28;45814;-47
2022/04/09 02:00:10;;;;;;;;;1.50;1.50;;;;;6.22;68.32;100552.34;5035148;28;45420;-48
2022/04/09 02:02:35;;;;;;;;;1.00;1.00;;;;;6.04;68.40;100529.03;5035250;28;46557;-48
2022/04/09 02:05:01;;;;;;;;;1.25;1.25;;;;;6.26;67.56;100570.03;5034728;28;45336;-47
2022/04/09 02:07:30;;;;;;;;;2.00;2.00;;;;;6.21;67.98;100553.38;5037992;28;45351;-49
2022/04/09 02:09:55;;;;;;;;;2.00;2.00;;;;;6.30;67.45;100565.03;5039327;28;45577;-48
2022/04/09 02:12:20;;;;;;;;;2.00;1.75;;;;;6.27;68.21;100554.50;5038558;28;45465;-47
2022/04/09 02:14:46;;;;;;;;;1.50;1.50;;;;;6.20;67.56;100554.41;5038894;28;45417;-49
2022/04/09 02:17:12;;;;;;;;;3.25;3.25;;;;;5.81;68.24;100488.22;5054086;28;45420;-53
2022/04/09 02:19:38;;;;;;;;;1.20;1.00;;;;;6.26;68.62;100561.84;4980070;28;45646;-48
2022/04/09 02:22:04;;;;;;;;;5.00;4.60;;;;;6.27;68.38;100566.25;5058508;28;46301;-48
2022/04/09 02:24:30;;;;;;;;;3.40;2.20;;;;;6.28;69.03;100567.09;5058562;28;45365;-50
2022/04/09 02:26:58;;;;;;;;;4.50;3.25;;;;;6.30;68.70;100560.41;5058789;28;45402;-47
2022/04/09 02:29:24;;;;;;;;;3.20;3.20;;;;;6.25;67.66;100571.06;5058997;28;45323;-47
2022/04/09 02:31:49;;;;;;;;;5.00;3.00;;;;;6.30;68.05;100574.03;5058481;28;46490;-48
2022/04/09 02:34:15;;;;;;;;;5.00;5.00;;;;;6.31;67.89;100578.50;5058589;28;45513;-50
2022/04/09 02:36:40;;;;;;;;;3.25;3.25;;;;;6.31;68.81;100583.09;5057293;28;45403;-49
2022/04/09 02:39:06;;;;;;;;;2.00;2.00;;;;;6.26;68.15;100589.09;5091583;27;45646;-50
2022/04/09 02:41:31;;;;;;;;;3.25;3.25;;;;;6.26;68.56;100594.56;5058273;28;46545;-51
2022/04/09 02:43:57;;;;;;;;;6.25;5.00;;;;;6.03;68.05;100560.03;5058743;28;45434;-46
2022/04/09 02:46:23;;;;;;;;;5.00;5.00;;;;;6.27;69.20;100598.09;5058551;28;45397;-49
2022/04/09 02:48:49;;;;;;;;;6.00;6.00;;;;;6.21;68.47;100589.66;5058477;28;45442;-50
2022/04/09 02:51:14;;;;;;;;;3.25;3.25;;;;;5.93;69.96;100571.16;5057028;28;46164;-49
2022/04/09 02:53:40;;;;;;;;;5.75;4.00;;;;;6.18;70.38;100600.06;5058313;28;45340;-48
2022/04/09 02:56:05;;;;;;;;;3.25;3.25;;;;;6.17;69.73;100606.56;5058627;28;45243;-47
2022/04/09 02:58:31;;;;;;;;;6.00;6.00;;;;;6.10;70.24;100599.13;5057346;28;45379;-47
2022/04/09 03:00:56;;;;;;;;;6.00;6.00;;;;;6.16;69.79;100599.41;5057676;28;45430;-51
2022/04/09 03:03:22;;;;;;;;;6.00;6.00;;;;;6.12;70.55;100600.84;5057944;28;45416;-48
2022/04/09 03:05:47;;;;;;;;;7.75;6.00;;;;;6.15;70.48;100604.03;5040086;28;45275;-47
2022/04/09 03:08:13;;;;;;;;;5.25;5.25;;;;;5.95;69.52;100585.47;5073974;28;45595;-50
2022/04/09 03:10:38;;;;;;;;;7.00;6.00;;;;;6.18;70.53;100635.50;5039542;28;46610;-47
2022/04/09 03:13:04;;;;;;;;;6.50;6.50;;;;;6.21;71.10;100640.59;5073421;28;45280;-49
2022/04/09 03:15:30;;;;;;;;;4.50;3.25;;;;;6.21;71.20;100646.91;5039485;28;45453;-50
2022/04/09 03:17:55;;;;;;;;;5.25;5.25;;;;;6.16;70.09;100640.31;5039266;28;45469;-49
2022/04/09 03:20:24;;;;;;;;;5.50;5.50;;;;;6.09;69.37;100642.94;5039578;28;46926;-49
2022/04/09 03:22:50;;;;;;;;;5.60;4.60;;;;;6.02;71.17;100629.19;5025522;28;45454;-50
2022/04/09 03:25:15;;;;;;;;;4.75;3.25;;;;;6.05;71.49;100622.53;5035757;28;45396;-50
2022/04/09 03:27:41;;;;;;;;;5.75;4.50;;;;;6.13;71.30;100616.16;5048050;28;45514;-49
2022/04/09 03:30:09;;;;;;;;;6.50;5.00;;;;;6.14;70.53;100621.41;5057876;28;46000;-53
2022/04/09 03:32:38;;;;;;;;;3.40;2.00;;;;;6.17;69.97;100625.63;5057291;28;45551;-51
2022/04/09 03:35:07;;;;;;;;;5.00;3.20;;;;;6.14;70.12;100623.28;5072875;28;45530;-53
2022/04/09 03:37:36;;;;;;;;;5.00;5.00;;;;;6.16;70.31;100640.31;5039579;28;45559;-49
2022/04/09 03:40:06;;;;;;;;;6.40;5.00;;;;;6.15;70.09;100653.09;5039123;28;45409;-49
2022/04/09 03:42:32;;;;;;;;;6.00;5.00;;;;;5.90;70.24;100617.00;5070689;28;45408;-49
2022/04/09 03:44:58;;;;;;;;;5.75;5.75;;;;;6.19;69.64;100668.03;5055584;28;45396;-47
2022/04/09 03:47:23;;;;;;;;;5.00;5.00;;;;;6.00;70.11;100663.91;5057276;28;45336;-49
2022/04/09 03:49:49;;;;;;;;;2.00;2.00;;;;;5.81;69.41;100647.03;5039155;28;45354;-49
2022/04/09 03:52:14;;;;;;;;;2.75;2.75;;;;;5.80;69.36;100664.44;5038763;28;45386;-49
2022/04/09 03:54:40;;;;;;;;;4.00;3.25;;;;;5.78;69.97;100662.91;5057066;28;45720;-54
2022/04/09 03:57:05;;;;;;;;;5.25;5.25;;;;;5.83;70.37;100665.94;5073014;28;45538;-49
2022/04/09 03:59:31;;;;;;;;;1.50;1.50;;;;;5.66;69.17;100636.09;5056835;28;45433;-49
2022/04/09 04:01:57;;;;;;;;;3.50;3.50;;;;;5.87;69.84;100669.97;5057344;28;45755;-54
2022/04/09 04:04:22;;;;;;;;;5.00;5.00;;;;;5.89;70.11;100667.94;5057346;28;45493;-51
2022/04/09 04:06:48;;;;;;;;;5.00;2.50;;;;;5.92;69.72;100664.81;5057365;28;45575;-50
2022/04/09 04:09:17;;;;;;;;;3.25;3.25;;;;;6.02;70.14;100669.19;5057233;28;46211;-50
2022/04/09 04:11:43;;;;;;;;;7.80;5.00;;;;;5.94;69.29;100657.31;5057383;28;45323;-51
2022/04/09 04:14:09;;;;;;;;;3.60;3.40;;;;;6.04;68.58;100670.72;5056451;28;45311;-50
2022/04/09 04:16:35;;;;;;;;;5.00;4.20;;;;;6.06;69.22;100670.53;5056293;28;45314;-48
2022/04/09 04:19:00;;;;;;;;;3.25;3.25;;;;;6.01;68.25;100652.00;5072049;28;47325;-50
2022/04/09 04:21:26;;;;;;;;;5.25;5.25;;;;;6.02;69.07;100661.88;5072737;28;45853;-48
2022/04/09 04:23:51;;;;;;;;;5.25;4.50;;;;;6.04;68.99;100675.34;5057236;28;45807;-50
2022/04/09 04:26:17;;;;;;;;;2.00;2.00;;;;;6.02;68.45;100669.19;5072374;28;45358;-52
2022/04/09 04:28:42;;;;;;;;;5.25;3.50;;;;;5.92;68.25;100670.28;5036945;28;46476;-50
2022/04/09 04:31:08;;;;;;;;;5.00;5.00;;;;;5.98;69.40;100671.44;5036878;28;45371;-50
2022/04/09 04:33:34;;;;;;;;;7.25;6.00;;;;;5.72;69.16;100630.94;5019199;28;45410;-49
2022/04/09 04:35:59;;;;;;;;;7.50;5.00;;;;;5.78;69.28;100644.69;5002529;28;45621;-49
2022/04/09 04:38:27;;;;;;;;;7.00;5.75;;;;;6.06;69.07;100674.13;5019040;28;47257;-51
2022/04/09 04:40:53;;;;;;;;;5.80;5.40;;;;;6.14;69.14;100673.19;5036326;28;45403;-50
2022/04/09 04:43:19;;;;;;;;;5.40;5.40;;;;;6.19;69.22;100665.31;5036508;28;45315;-50
2022/04/09 04:45:44;;;;;;;;;4.00;4.00;;;;;6.18;68.42;100663.63;5037054;28;45343;-53
2022/04/09 04:48:10;;;;;;;;;5.75;5.75;;;;;6.20;68.93;100668.88;5018146;28;47662;-51
2022/04/09 04:50:36;;;;;;;;;6.75;5.50;;;;;6.26;69.19;100680.91;5036721;28;45320;-52
2022/04/09 04:53:01;;;;;;;;;6.00;5.80;;;;;5.95;69.38;100617.31;5036271;28;45510;-49
2022/04/09 04:55:28;;;;;;;;;6.00;5.75;;;;;6.01;69.18;100638.38;5036440;28;45459;-52
2022/04/09 04:57:54;;;;;;;;;5.00;5.00;;;;;6.24;68.51;100672.91;5036345;28;45489;-48
2022/04/09 05:00:23;;;;;;;;;5.00;5.00;;;;;6.29;69.68;100688.75;5053547;28;45408;-49
2022/04/09 05:02:49;;;;;;;;;5.40;3.80;;;;;6.30;69.44;100685.81;5054622;28;45384;-51
2022/04/09 05:05:15;;;;;;;;;9.00;6.00;;;;;6.30;68.74;100685.81;5056365;28;45317;-51
2022/04/09 05:07:42;;;;;;;;;9.00;9.00;;;;;6.26;69.59;100687.22;5056104;28;46450;-51
2022/04/09 05:10:12;;;;;;;;;6.00;6.00;;;;;6.28;69.54;100693.34;5055780;28;45310;-49
2022/04/09 05:12:38;;;;;;;;;6.00;6.00;;;;;6.27;69.23;100699.81;5054478;28;45204;-49
2022/04/09 05:15:04;;;;;;;;;8.00;8.00;;;;;6.31;68.55;100697.56;5056104;28;45301;-50
2022/04/09 05:17:29;;;;;;;;;10.25;10.25;;;;;6.32;68.73;100711.03;5055456;28;46300;-51
2022/04/09 05:19:55;;;;;;;;;6.50;6.50;;;;;6.31;68.76;100701.16;5055947;28;45375;-51
2022/04/09 05:22:21;;;;;;;;;7.75;7.75;;;;;6.28;68.57;100706.09;5055897;28;45958;-54
2022/04/09 05:24:46;;;;;;;;;9.50;9.25;;;;;6.22;69.18;100696.81;5055754;28;45484;-51
2022/04/09 05:27:11;;;;;;;;;10.50;10.50;;;;;6.27;68.16;100704.41;5055537;28;45435;-50
2022/04/09 05:29:37;;;;;;;;;10.25;8.50;;;;;6.27;68.97;100694.38;5054214;28;45340;-50
2022/04/09 05:32:04;;;;;;;;;9.00;9.00;;;;;6.26;68.62;100691.81;5088746;27;45439;-47
2022/04/09 05:34:29;;;;;;;;;13.80;10.60;;;;;6.18;68.96;100698.19;5055655;28;45377;-51
2022/04/09 05:36:55;;;;;;;;;16.00;11.75;;;;;6.16;69.13;100702.97;5054065;28;46013;-52
2022/04/09 05:39:20;;;;;;;;;9.25;9.25;;;;;6.19;69.55;100717.09;5055622;28;45251;-51
2022/04/09 05:41:46;;;;;;;;;12.50;9.75;;;;;6.18;70.17;100715.41;5054581;28;45360;-50
2022/04/09 05:44:11;;;;;;;;;9.00;9.00;;;;;6.21;69.60;100711.47;5055888;28;45365;-55
2022/04/09 05:46:37;;;;;;;;;10.75;10.00;;;;;6.27;70.14;100716.19;5055792;28;46168;-48
2022/04/09 05:49:02;;;;;;;;;12.50;10.75;;;;;6.30;69.26;100720.41;5055303;28;45383;-55
2022/04/09 05:51:29;;;;;;;;;12.50;10.25;;;;;6.28;69.43;100719.72;5055545;28;45264;-50
2022/04/09 05:53:55;;;;;;;;;11.60;10.00;;;;;6.31;69.81;100720.25;5054135;28;45666;-46
2022/04/09 05:56:22;;;;;;;;;13.75;11.25;;;;;6.24;69.02;100721.97;5055141;28;45524;-49
2022/04/09 05:58:47;;;;;;;;;14.20;10.20;;;;;6.15;69.71;100723.97;5054761;28;45443;-53
2022/04/09 06:01:13;;;;;;;;;11.00;11.00;;;;;6.22;69.84;100734.97;5071034;28;45407;-48
2022/04/09 06:03:38;;;;;;;;;13.25;9.00;;;;;6.28;69.58;100734.22;5055265;28;45634;-49
2022/04/09 06:06:04;;;;;;;;;9.00;9.00;;;;;6.11;70.12;100706.25;5054976;28;46204;-49
2022/04/09 06:08:33;;;;;;;;;11.50;11.50;;;;;6.32;70.14;100743.75;5036918;28;45668;-51
2022/04/09 06:10:58;;;;;;;;;18.40;13.20;;;;;6.33;70.03;100734.53;5055235;28;45346;-49
2022/04/09 06:13:24;;;;;;;;;6.00;6.00;;;;;6.38;69.58;100733.97;5037270;28;45601;-52
2022/04/09 06:15:49;;;;;;;;;13.00;11.25;;;;;6.43;69.19;100738.88;5037051;28;46179;-49
2022/04/09 06:18:15;;;;;;;;;9.00;9.00;;;;;6.42;69.58;100737.16;5025877;28;45895;-51
2022/04/09 06:20:41;;;;;;;;;9.75;9.75;;;;;6.43;69.57;100741.59;5014709;28;45502;-49
2022/04/09 06:23:06;;;;;;;;;11.50;10.75;;;;;6.12;69.95;100707.94;5034797;28;45538;-49
2022/04/09 06:25:32;;;;;;;;;10.50;9.00;;;;;6.29;69.97;100730.47;5034612;28;45716;-48
2022/04/09 06:27:58;;;;;;;;;17.00;15.25;;;;;6.54;69.64;100768.41;5046250;28;45338;-48
2022/04/09 06:30:23;;;;;;;;;14.75;14.00;;;;;6.56;70.06;100766.34;5055189;28;45456;-49
2022/04/09 06:32:49;;;;;;;;;14.25;14.00;;;;;6.56;70.27;100760.88;5055111;28;45375;-50
2022/04/09 06:35:14;;;;;;;;;15.00;13.25;;;;;6.61;70.36;100777.56;5054557;28;45759;-49
2022/04/09 06:37:40;;;;;;;;;11.25;10.00;;;;;6.50;69.34;100757.03;5054453;28;45462;-49
2022/04/09 06:40:07;;;;;;;;;7.00;7.00;;;;;6.69;69.24;100775.78;5036865;28;45311;-48
2022/04/09 06:42:33;;;;;;;;;9.00;9.00;;;;;6.59;69.82;100778.78;5036700;28;45255;-49
2022/04/09 06:45:00;;;;;;;;;7.50;7.50;;;;;6.43;69.54;100779.75;5019785;28;46509;-50
2022/04/09 06:47:25;;;;;;;;;7.80;7.00;;;;;6.17;70.24;100731.94;5036772;28;45457;-49
2022/04/09 06:49:51;;;;;;;;;10.00;10.00;;;;;6.60;69.97;100784.06;5070111;28;45479;-49
2022/04/09 06:52:16;;;;;;;;;6.00;6.00;;;;;6.57;70.25;100786.31;5054918;28;45330;-49
2022/04/09 06:54:42;;;;;;;;;9.50;7.00;;;;;6.55;69.96;100785.66;5056950;28;46044;-51
2022/04/09 06:57:07;;;;;;;;;5.75;5.75;;;;;6.34;70.01;100757.16;5057732;28;45352;-50
2022/04/09 06:59:33;;;;;;;;;10.25;7.25;;;;;6.58;70.13;100797.03;5058095;28;45468;-53
2022/04/09 07:01:58;;;;;;;;;8.75;6.75;;;;;6.63;69.88;100807.38;5056565;28;45583;-52
2022/04/09 07:04:24;;;;;;;;;8.50;7.00;;;;;6.65;70.12;100805.31;5057527;28;45507;-49
2022/04/09 07:06:50;;;;;;;;;8.00;8.00;;;;;6.71;69.92;100814.63;5057802;28;45370;-54
2022/04/09 07:09:15;;;;;;;;;7.00;6.00;;;;;6.73;69.87;100809.84;5039781;28;45480;-51
2022/04/09 07:11:41;;;;;;;;;10.00;6.50;;;;;6.74;69.73;100817.81;5040285;28;45240;-48
2022/04/09 07:14:07;;;;;;;;;10.75;5.00;;;;;6.77;70.30;100816.63;5039297;28;45374;-51
2022/04/09 07:16:32;;;;;;;;;6.25;6.00;;;;;6.70;70.51;100816.53;5057897;28;45273;-48
2022/04/09 07:18:58;;;;;;;;;9.25;7.00;;;;;6.50;69.49;100786.16;5057254;28;45353;-49
2022/04/09 07:21:23;;;;;;;;;6.25;6.25;;;;;6.69;69.89;100820.28;5057830;28;45283;-48
2022/04/09 07:23:48;;;;;;;;;5.25;4.00;;;;;6.62;70.09;100820.16;5057461;28;46297;-53
2022/04/09 07:26:18;;;;;;;;;5.50;5.50;;;;;6.66;69.49;100817.06;5072816;28;45366;-53
2022/04/09 07:28:43;;;;;;;;;7.00;6.20;;;;;6.74;69.62;100825.19;5054515;28;45384;-54
2022/04/09 07:31:09;;;;;;;;;6.00;6.00;;;;;6.07;70.03;100708.50;5011852;28;45739;-47
2022/04/09 07:33:35;;;;;;;;;5.75;5.00;;;;;6.87;69.71;100832.72;5019235;28;45760;-51
2022/04/09 07:36:00;;;;;;;;;11.50;6.00;;;;;6.94;69.35;100821.94;5037167;28;45343;-52
2022/04/09 07:38:26;;;;;;;;;6.00;5.00;;;;;7.15;69.34;100834.84;5019148;28;45388;-50
2022/04/09 07:40:51;;;;;;;;;8.00;6.00;;;;;7.05;68.59;100802.38;5019765;28;45738;-52
2022/04/09 07:43:17;;;;;;;;;5.00;5.00;;;;;7.42;68.54;100841.53;5036841;28;45925;-50
2022/04/09 07:45:42;;;;;;;;;6.00;3.75;;;;;7.26;68.12;100804.34;5036713;28;45421;-49
2022/04/09 07:48:11;;;;;;;;;8.50;7.50;;;;;7.47;68.00;100832.75;5019136;28;45327;-52
2022/04/09 07:50:36;;;;;;;;;7.00;6.60;;;;;7.39;67.13;100839.19;5019963;28;45453;-54
2022/04/09 07:53:02;;;;;;;;;6.75;6.75;;;;;7.17;67.48;100827.31;5036743;28;46299;-52
2022/04/09 07:55:27;;;;;;;;;7.00;7.00;;;;;7.29;67.73;100846.81;5037011;28;45370;-48
2022/04/09 07:57:56;;;;;;;;;5.50;5.50;;;;;7.30;68.14;100849.34;5037132;28;45430;-48
2022/04/09 08:00:22;;;;;;;;;4.00;3.40;;;;;7.24;68.42;100855.56;5055242;28;45147;-48
2022/04/09 08:02:48;;;;;;;;;9.60;8.20;;;;;7.33;68.31;100864.50;5056962;28;45337;-49
2022/04/09 08:05:13;;;;;;;;;6.75;6.75;;;;;7.27;67.89;100862.53;5056964;28;45211;-51
2022/04/09 08:07:39;;;;;;;;;6.75;6.75;;;;;7.22;67.25;100862.25;5089842;27;45510;-49
2022/04/09 08:10:05;;;;;;;;;6.00;6.00;;;;;7.24;68.34;100857.44;5057262;28;45430;-51
2022/04/09 08:12:30;;;;;;;;;9.00;9.00;;;;;7.06;68.17;100806.78;5056969;28;45338;-52
2022/04/09 08:14:56;;;;;;;;;7.00;6.00;;;;;7.00;66.48;100796.63;5055109;28;45378;-49
2022/04/09 08:17:22;;;;;;;;;5.50;5.50;;;;;7.39;66.43;100857.44;5057119;28;45479;-48
2022/04/09 08:19:47;;;;;;;;;10.00;6.00;;;;;7.39;66.03;100866.50;5056772;28;45496;-47
2022/04/09 08:22:13;;;;;;;;;6.25;6.25;;;;;7.36;65.91;100875.03;5055894;28;45767;-47
2022/04/09 08:24:41;;;;;;;;;9.75;6.00;;;;;7.30;65.89;100870.34;5055531;28;45488;-49
2022/04/09 08:27:08;;;;;;;;;10.20;8.60;;;;;7.21;65.98;100872.31;5056806;28;45247;-49
2022/04/09 08:29:34;;;;;;;;;5.60;5.60;;;;;7.15;66.55;100879.34;5056889;28;45254;-48
2022/04/09 08:32:01;;;;;;;;;5.00;5.00;;;;;6.98;66.62;100847.81;5026993;28;48076;-47
2022/04/09 08:34:29;;;;;;;;;3.00;1.40;;;;;7.13;66.79;100877.84;5022703;28;45390;-52
2022/04/09 08:36:55;;;;;;;;;7.60;7.40;;;;;7.11;67.35;100882.66;5032561;28;45445;-54
2022/04/09 08:39:20;;;;;;;;;8.00;6.00;;;;;7.15;67.03;100886.72;5068772;28;45446;-48
2022/04/09 08:41:46;;;;;;;;;9.25;7.00;;;;;7.00;67.49;100865.69;5034900;28;45433;-51
2022/04/09 08:44:12;;;;;;;;;6.00;6.00;;;;;7.26;67.22;100902.63;5035202;28;45423;-48
2022/04/09 08:46:39;;;;;;;;;9.20;9.20;;;;;7.18;67.75;100887.19;5036253;28;45894;-52
2022/04/09 08:49:05;;;;;;;;;9.40;7.00;;;;;7.36;67.13;100910.53;5035753;28;45632;-53
2022/04/09 08:51:31;;;;;;;;;6.80;6.80;;;;;7.31;66.36;100916.56;5034932;28;47634;-51
2022/04/09 08:54:03;;;;;;;;;10.20;9.20;;;;;7.17;66.72;100901.84;5033246;28;45478;-51
2022/04/09 08:56:29;;;;;;;;;6.60;6.60;;;;;7.29;66.78;100920.53;5035220;28;45337;-52
2022/04/09 08:59:00;;;;;;;;;9.20;8.40;;;;;7.03;66.63;100889.03;5018590;28;45593;-50
2022/04/09 09:01:26;;;;;;;;;7.80;7.00;;;;;7.26;66.77;100929.09;5035806;28;46442;-50
2022/04/09 09:03:52;;;;;;;;;5.00;5.00;;;;;7.24;65.47;100932.00;5035897;28;45199;-51
2022/04/09 09:06:29;;;;;;;;;5.20;5.00;;;;;6.81;65.79;100877.97;5033940;28;45465;-51
2022/04/09 09:08:55;;;;;;;;;4.20;2.20;;;;;7.10;65.48;100920.00;5034490;28;45379;-48
2022/04/09 09:11:22;;;;;;;;;4.20;4.20;;;;;7.18;65.12;100919.94;5035693;28;46830;-50
2022/04/09 09:13:52;;;;;;;;;5.80;5.00;;;;;7.22;65.36;100938.69;5035204;28;45357;-50
2022/04/09 09:16:35;;;;;;;;;6.20;6.00;;;;;7.16;65.14;100935.66;5031564;28;45727;-52
2022/04/09 09:19:06;;;;;;;;;4.60;4.60;;;;;7.11;64.56;100939.97;5035626;28;45509;-49
2022/04/09 09:21:31;;;;;;;;;9.00;6.80;;;;;7.07;64.71;100938.63;5035457;28;45851;-49
2022/04/09 09:24:09;;;;;;;;;9.00;9.00;;;;;7.13;64.83;100946.09;5034197;28;45381;-52
2022/04/09 09:26:38;;;;;;;;;9.00;9.00;;;;;7.07;65.29;100916.81;5035453;28;45400;-50
2022/04/09 09:29:04;;;;;;;;;6.00;5.20;;;;;7.34;64.39;100953.59;5017166;28;46085;-49
2022/04/09 09:31:42;;;;;;;;;6.00;6.00;;;;;7.43;64.25;100952.47;5004971;28;46484;-48
2022/04/09 09:34:11;;;;;;;;;3.40;2.60;;;;;7.46;63.63;100960.28;5014300;28;45398;-50
2022/04/09 09:36:40;;;;;;;;;7.80;6.40;;;;;7.53;63.00;100965.84;5014284;28;45745;-49
2022/04/09 09:39:06;;;;;;;;;7.80;5.00;;;;;7.65;62.97;100974.44;5014920;28;45559;-50
2022/04/09 09:41:32;;;;;;;;;6.40;6.40;;;;;7.55;62.36;100930.16;5029200;28;46957;-49
2022/04/09 09:44:01;;;;;;;;;5.00;5.00;;;;;7.65;61.70;100966.25;5014055;28;45454;-47
2022/04/09 09:46:27;;;;;;;;;10.20;6.20;;;;;7.83;61.64;100979.53;5014678;28;45536;-49
2022/04/09 09:48:53;;;;;;;;;7.75;7.00;;;;;7.83;61.92;100965.03;5015789;28;45538;-51
2022/04/09 09:51:24;;;;;;;;;5.75;5.50;;;;;7.90;61.67;100971.44;5014453;28;45821;-47
2022/04/09 09:53:50;;;;;;;;;7.80;7.80;;;;;7.97;61.14;100980.59;5022825;28;45412;-51
2022/04/09 09:56:41;;;;;;;;;10.50;9.25;;;;;8.02;61.14;100999.16;5017265;28;45558;-49
2022/04/09 09:59:07;;;;;;;;;10.40;9.20;;;;;7.96;61.59;100992.53;5039075;28;45572;-52
2022/04/09 10:01:35;;;;;;;;;6.50;6.00;;;;;7.97;60.91;101004.34;5003895;28;46068;-57
2022/04/09 10:04:01;;;;;;;;;8.80;8.80;;;;;7.94;60.95;101016.50;5053089;28;45425;-55
2022/04/09 10:06:28;;;;;;;;;6.60;6.60;;;;;7.84;61.08;101024.09;5053557;28;45401;-52
2022/04/09 10:08:53;;;;;;;;;8.80;7.20;;;;;7.69;62.06;101032.31;5055577;28;45496;-56
2022/04/09 10:11:19;;;;;;;;;8.25;8.25;;;;;7.58;62.19;101014.47;5054915;28;46097;-51
2022/04/09 10:13:47;;;;;;;;;7.00;6.00;;;;;7.34;61.70;100983.63;5070679;28;45374;-53
2022/04/09 10:16:18;;;;;;;;;8.60;8.60;;;;;7.59;61.38;101022.47;5037272;28;45777;-54
2022/04/09 10:18:44;;;;;;;;;6.40;6.40;;;;;7.69;62.23;101041.31;5068696;28;45523;-52
2022/04/09 10:21:10;;;;;;;;;11.20;8.60;;;;;7.78;62.23;101046.75;5036783;28;45377;-51
2022/04/09 10:23:36;;;;;;;;;8.00;7.80;;;;;7.85;61.95;101034.03;5054891;28;45602;-52
2022/04/09 10:26:02;;;;;;;;;10.00;7.00;;;;;7.96;61.99;101036.28;5054865;28;45426;-49
2022/04/09 10:28:33;;;;;;;;;7.60;7.60;;;;;8.04;60.52;101039.94;5073011;28;45415;-52
2022/04/09 10:30:58;;;;;;;;;10.60;10.60;;;;;8.09;61.24;101035.63;5050191;28;46091;-51
2022/04/09 10:33:27;;;;;;;;;10.00;5.75;;;;;8.12;61.97;101048.09;5046091;28;45383;-54
2022/04/09 10:35:52;;;;;;;;;11.00;10.00;;;;;8.04;61.58;101042.69;5057407;28;45369;-49
2022/04/09 10:38:19;;;;;;;;;15.25;9.25;;;;;7.81;61.72;101011.69;5072560;28;45399;-51
2022/04/09 10:40:50;;;;;;;;;8.20;8.20;;;;;7.32;61.75;100955.66;5057339;28;45480;-53
2022/04/09 10:43:22;;;;;;;;;10.40;10.40;;;;;7.89;62.01;101065.41;5056000;28;45330;-50
2022/04/09 10:46:04;;;;;;;;;10.00;8.80;;;;;7.88;62.22;101063.69;5038210;28;45278;-57
2022/04/09 10:48:42;;;;;;;;;13.80;13.20;;;;;7.70;61.69;101029.38;5057241;28;45635;-52
2022/04/09 10:51:11;;;;;;;;;11.00;10.00;;;;;7.90;62.05;101066.25;4991571;28;46823;-50
2022/04/09 10:53:48;;;;;;;;;10.00;8.60;;;;;7.88;61.98;101062.88;5038451;28;45464;-49
2022/04/09 10:56:30;;;;;;;;;7.00;7.00;;;;;7.15;62.04;100946.78;5057707;28;45501;-51
2022/04/09 10:59:16;;;;;;;;;10.20;10.20;;;;;7.81;62.02;101057.28;5033741;28;45493;-52
2022/04/09 11:01:48;;;;;;;;;10.00;8.00;;;;;7.76;62.09;101049.66;5011471;28;45842;-52
2022/04/09 11:04:34;;;;;;;;;12.20;10.40;;;;;7.86;62.14;101072.06;5012861;28;45457;-53
2022/04/09 11:07:06;;;;;;;;;11.40;9.80;;;;;7.87;62.14;101081.13;5030225;28;45781;-55
2022/04/09 11:09:52;;;;;;;;;9.80;9.80;;;;;7.85;62.73;101081.31;5013495;28;45442;-49
2022/04/09 11:12:41;;;;;;;;;12.80;10.80;;;;;7.85;62.31;101086.78;4996545;28;47695;-50
2022/04/09 11:15:08;;;;;;;;;10.20;10.20;;;;;7.86;63.12;101088.47;5013399;28;45706;-47
2022/04/09 11:17:37;;;;;;;;;9.80;9.80;;;;;7.62;62.76;101051.31;4999122;28;46697;-50
2022/04/09 11:20:06;;;;;;;;;10.00;7.00;;;;;7.83;62.19;101086.13;5028411;28;45436;-52
2022/04/09 11:22:36;;;;;;;;;13.20;10.40;;;;;7.83;62.90;101094.31;5013253;28;45687;-55
2022/04/09 11:25:04;;;;;;;;;9.40;8.20;;;;;7.86;62.54;101090.38;5012157;28;45692;-52
2022/04/09 11:27:29;;;;;;;;;6.40;6.40;;;;;7.92;62.55;101089.63;5011962;28;45892;-48
2022/04/09 11:29:55;;;;;;;;;14.50;11.25;;;;;8.00;62.65;101095.00;5016563;28;45402;-49